Time;durP1;ratioP1;P1;durP2;ratioP2;P2;SDS_P1;SDS_P2;PMS_P1;PMS_P2;Temp;Humidity;BMP_temperature;BMP_pressure;BME280_temperature;BME280_humidity;BME280_pressure;Samples;Min_cycle;Max_cycle;Signal;HPM_P1;HPM_P2
2022/11/17 00:01:51;;;;;;;12.82;5.95;;;;;;;8.39;100.00;98722.50;5012312;28;20104;-93
2022/11/17 00:04:16;;;;;;;13.10;4.70;;;;;;;8.42;100.00;98713.09;5012090;28;20116;-91
2022/11/17 00:06:41;;;;;;;11.43;4.80;;;;;;;8.42;100.00;98707.75;5011238;28;20037;-92
2022/11/17 00:09:16;;;;;;;10.53;5.60;;;;;;;8.45;100.00;98710.66;5011868;28;20022;-91
2022/11/17 00:14:31;;;;;;;13.07;5.35;;;;;;;8.46;100.00;98685.53;5012042;28;20033;-92
2022/11/17 00:17:00;;;;;;;12.60;5.78;;;;;;;8.45;100.00;98683.16;5011366;28;20111;-92
2022/11/17 00:22:09;;;;;;;9.93;5.97;;;;;;;8.50;100.00;98677.75;5010870;28;20299;-91
2022/11/17 00:24:35;;;;;;;10.10;5.40;;;;;;;8.43;100.00;98661.31;5011543;28;20025;-92
2022/11/17 00:27:00;;;;;;;16.20;7.67;;;;;;;8.41;100.00;98647.47;5011201;28;20041;-92
2022/11/17 00:29:26;;;;;;;13.13;5.57;;;;;;;8.56;100.00;98671.25;4993382;28;20034;-92
2022/11/17 00:34:35;;;;;;;14.13;5.45;;;;;;;8.46;100.00;98632.16;5011908;28;20454;-91
2022/11/17 00:37:01;;;;;;;15.43;5.83;;;;;;;8.39;100.00;98622.97;5011109;28;20153;-90
2022/11/17 00:39:26;;;;;;;12.20;5.97;;;;;;;8.51;100.00;98611.81;5010155;28;20037;-91
2022/11/17 00:41:52;;;;;;;13.30;4.70;;;;;;;8.54;100.00;98614.69;5011078;28;20339;-91
2022/11/17 00:44:17;;;;;;;13.70;5.20;;;;;;;8.51;100.00;98612.59;5011277;28;20021;-90
2022/11/17 00:46:43;;;;;;;15.80;5.90;;;;;;;8.55;100.00;98629.63;5010876;28;20087;-91
2022/11/17 00:49:09;;;;;;;13.15;5.75;;;;;;;8.42;100.00;98603.69;5003833;28;20150;-92
2022/11/17 00:51:35;;;;;;;13.87;5.37;;;;;;;8.51;100.00;98614.47;5000441;28;20032;-91
2022/11/17 00:54:02;;;;;;;12.67;5.77;;;;;;;8.46;100.00;98594.00;5010311;28;20296;-91
2022/11/17 00:56:27;;;;;;;8.52;4.60;;;;;;;8.46;100.00;98594.78;5010775;28;20076;-91
2022/11/17 00:58:53;;;;;;;12.43;5.07;;;;;;;8.48;100.00;98599.84;5014700;28;20054;-91
2022/11/17 01:01:19;;;;;;;11.40;5.30;;;;;;;8.58;100.00;98596.19;5015458;28;20084;-94
2022/11/17 01:03:45;;;;;;;11.47;5.67;;;;;;;8.57;100.00;98592.75;5016009;28;20281;-93
2022/11/17 01:06:18;;;;;;;10.95;5.40;;;;;;;8.47;100.00;98584.91;4997585;28;20229;-93
2022/11/17 01:08:44;;;;;;;8.13;4.50;;;;;;;8.45;100.00;98581.72;5013479;28;20026;-94
2022/11/17 01:11:18;;;;;;;13.17;5.50;;;;;;;8.61;100.00;98595.59;5012092;28;20068;-93
2022/11/17 01:13:45;;;;;;;7.03;3.53;;;;;;;8.60;100.00;98612.69;5015487;28;20284;-94
2022/11/17 01:16:13;;;;;;;8.80;4.20;;;;;;;8.58;100.00;98604.97;5015928;28;20532;-94
2022/11/17 01:18:40;;;;;;;10.85;4.35;;;;;;;8.57;100.00;98557.22;5013470;28;20081;-95
2022/11/17 01:21:11;;;;;;;11.07;3.80;;;;;;;8.53;100.00;98557.06;5006657;28;20180;-93
2022/11/17 01:23:38;;;;;;;7.57;2.97;;;;;;;8.60;100.00;98562.75;5016842;28;20025;-94
2022/11/17 01:26:09;;;;;;;8.27;3.55;;;;;;;8.57;100.00;98568.72;5012672;28;20034;-96
2022/11/17 01:28:35;;;;;;;7.72;3.10;;;;;;;8.62;100.00;98554.47;5008218;28;20022;-96
2022/11/17 01:31:06;;;;;;;4.87;2.70;;;;;;;8.62;100.00;98557.13;5028367;28;20095;-96
2022/11/17 01:33:32;;;;;;;8.47;2.77;;;;;;;8.47;100.00;98526.19;5009044;28;20281;-96
2022/11/17 01:36:05;;;;;;;8.10;2.30;;;;;;;8.63;100.00;98545.38;5025482;28;20073;-96
2022/11/17 01:38:31;;;;;;;5.57;1.80;;;;;;;8.53;100.00;98527.69;5026348;28;20033;-96
2022/11/17 01:40:59;;;;;;;4.88;2.08;;;;;;;8.64;100.00;98529.03;5003019;28;20040;-96
2022/11/17 01:43:38;;;;;;;7.40;2.30;;;;;;;8.64;100.00;98529.03;5019486;28;20044;-96
2022/11/17 01:46:08;;;;;;;4.00;1.87;;;;;;;8.61;100.00;98516.28;5018206;28;20300;-96
2022/11/17 01:48:33;;;;;;;7.05;1.80;;;;;;;8.73;100.00;98529.09;5023510;28;20034;-96
2022/11/17 01:50:59;;;;;;;6.05;2.13;;;;;;;8.72;100.00;98510.72;5027169;28;20030;-96
2022/11/17 01:53:27;;;;;;;5.07;2.20;;;;;;;8.75;100.00;98518.16;5017656;28;20068;-96
2022/11/17 01:56:00;;;;;;;7.90;2.57;;;;;;;8.70;100.00;98486.22;5025010;28;20029;-94
2022/11/17 01:58:30;;;;;;;5.60;2.70;;;;;;;8.79;100.00;98508.41;5011269;28;20292;-94
2022/11/17 02:00:55;;;;;;;5.55;2.25;;;;;;;8.76;100.00;98496.47;5014008;28;20026;-95
2022/11/17 02:03:23;;;;;;;5.43;2.30;;;;;;;8.80;100.00;98496.66;4997427;28;20026;-95
2022/11/17 02:06:01;;;;;;;2.50;2.30;;;;;;;8.72;100.00;98481.34;5015081;28;20273;-95
2022/11/17 02:08:30;;;;;;;4.75;2.03;;;;;;;8.81;100.00;98514.25;5014663;28;20026;-94
2022/11/17 02:10:56;;;;;;;5.57;2.72;;;;;;;8.80;100.00;98507.31;5013577;28;20018;-95
2022/11/17 02:13:22;;;;;;;3.78;2.00;;;;;;;8.83;100.00;98520.06;5014345;28;20390;-93
2022/11/17 02:15:47;;;;;;;6.35;2.45;;;;;;;8.75;100.00;98489.53;5013732;28;20041;-96
2022/11/17 02:18:15;;;;;;;4.53;2.00;;;;;;;8.84;100.00;98494.19;5012344;28;20225;-94
2022/11/17 02:20:50;;;;;;;5.53;1.95;;;;;;;8.68;100.00;98465.13;5012787;28;20048;-92
2022/11/17 02:23:53;;;;;;;5.68;2.10;;;;;;;8.81;100.00;98482.19;4996511;28;20022;-93
2022/11/17 02:26:52;;;;;;;4.97;2.53;;;;;;;8.78;100.00;98475.59;5016242;28;20053;-93
2022/11/17 02:29:19;;;;;;;6.10;1.87;;;;;;;8.83;100.00;98497.94;5009131;28;20088;-93
2022/11/17 02:31:57;;;;;;;7.00;2.33;;;;;;;8.75;100.00;98484.22;5013178;28;20305;-93
2022/11/17 02:34:45;;;;;;;4.15;1.83;;;;;;;8.77;100.00;98484.69;5012371;28;20056;-94
2022/11/17 02:37:23;;;;;;;3.10;1.90;;;;;;;8.74;100.00;98473.84;5013526;28;20068;-93
2022/11/17 02:40:05;;;;;;;4.60;2.08;;;;;;;8.74;100.00;98460.50;5013205;28;20018;-94
2022/11/17 02:45:59;;;;;;;2.67;1.50;;;;;;;8.76;100.00;98455.63;4995630;28;20539;-94
2022/11/17 02:48:30;;;;;;;3.17;1.40;;;;;;;8.78;100.00;98456.09;5013775;28;20496;-93
2022/11/17 02:50:57;;;;;;;2.58;1.48;;;;;;;8.76;100.00;98444.97;5010530;28;20037;-92
2022/11/17 02:53:25;;;;;;;3.23;1.33;;;;;;;8.73;100.00;98446.34;4995732;28;20029;-94
2022/11/17 02:55:52;;;;;;;3.73;1.10;;;;;;;8.70;100.00;98443.50;5013956;28;20644;-93
2022/11/17 02:58:17;;;;;;;2.42;1.33;;;;;;;8.72;100.00;98443.97;5013149;28;20048;-94
2022/11/17 03:01:18;;;;;;;3.65;1.90;;;;;;;8.66;100.00;98431.84;5013743;28;20097;-94
2022/11/17 03:04:10;;;;;;;2.88;1.40;;;;;;;8.64;100.00;98435.59;4990022;28;20041;-94
2022/11/17 03:06:58;;;;;;;3.08;1.48;;;;;;;8.57;100.00;98413.09;5012449;28;20076;-94
2022/11/17 03:09:48;;;;;;;3.30;1.50;;;;;;;8.58;100.00;98420.78;5007897;28;20378;-93
2022/11/17 03:12:42;;;;;;;2.60;0.93;;;;;;;8.57;100.00;98411.22;4993807;28;20401;-94
2022/11/17 03:15:16;;;;;;;2.05;1.23;;;;;;;8.54;100.00;98403.81;4992866;28;20366;-94
2022/11/17 03:17:44;;;;;;;1.70;1.20;;;;;;;8.59;100.00;98406.34;4975891;28;20100;-94
2022/11/17 03:20:21;;;;;;;4.47;1.10;;;;;;;8.54;100.00;98408.34;4986867;28;20389;-94
2022/11/17 03:23:16;;;;;;;2.67;1.25;;;;;;;8.48;100.00;98397.00;5012599;28;20053;-94
2022/11/17 03:25:46;;;;;;;1.55;0.70;;;;;;;8.49;100.00;98390.59;5011107;28;20095;-94
2022/11/17 03:28:14;;;;;;;3.35;0.80;;;;;;;8.47;100.00;98388.19;5013124;28;20615;-94
2022/11/17 03:30:43;;;;;;;1.80;0.85;;;;;;;8.38;100.00;98383.88;5013000;28;20026;-94
2022/11/17 03:33:18;;;;;;;4.63;0.90;;;;;;;8.24;100.00;98367.91;5013320;28;20038;-93
2022/11/17 03:36:08;;;;;;;2.93;0.50;;;;;;;8.17;100.00;98358.44;4996095;28;20827;-94
2022/11/17 03:38:39;;;;;;;2.45;0.63;;;;;;;8.22;100.00;98372.78;4971888;28;20044;-94
2022/11/17 03:41:08;;;;;;;1.63;0.70;;;;;;;8.17;100.00;98357.69;5012825;28;20128;-93
2022/11/17 03:43:37;;;;;;;1.92;0.60;;;;;;;8.07;100.00;98348.03;5013510;28;20092;-94
2022/11/17 03:46:09;;;;;;;3.17;0.60;;;;;;;8.09;100.00;98348.50;4997293;28;20616;-94
2022/11/17 03:48:45;;;;;;;2.25;0.70;;;;;;;8.25;100.00;98367.59;5020514;28;20031;-93
2022/11/17 03:51:16;;;;;;;3.05;0.70;;;;;;;8.08;100.00;98340.81;5034870;28;20041;-94
2022/11/17 03:53:41;;;;;;;2.40;0.60;;;;;;;8.24;100.00;98367.91;5012877;28;20037;-94
2022/11/17 03:56:44;;;;;;;2.03;0.57;;;;;;;8.20;100.00;98359.75;5010861;28;20041;-94
2022/11/17 03:59:16;;;;;;;1.13;0.50;;;;;;;8.22;100.00;98354.88;5011514;28;20378;-94
2022/11/17 04:01:45;;;;;;;1.13;0.70;;;;;;;8.27;100.00;98335.31;5012135;28;20404;-94
2022/11/17 04:04:16;;;;;;;0.98;0.60;;;;;;;8.35;100.00;98326.56;5012040;28;20026;-95
2022/11/17 04:06:41;;;;;;;2.00;0.60;;;;;;;8.33;100.00;98321.53;5011798;28;20036;-94
2022/11/17 04:09:06;;;;;;;2.23;0.60;;;;;;;8.57;100.00;98349.03;4990680;28;20030;-94
2022/11/17 04:17:00;;;;;;;4.53;1.67;;;;;;;8.57;100.00;98341.81;5019928;28;20069;-92
2022/11/17 04:19:27;;;;;;;1.80;1.20;;;;;;;8.72;100.00;98361.97;5019908;28;20034;-93
2022/11/17 04:21:53;;;;;;;2.92;1.50;;;;;;;8.72;100.00;98364.66;4999961;28;20044;-94
2022/11/17 04:24:18;;;;;;;2.50;1.50;;;;;;;8.61;100.00;98339.31;5015291;28;20025;-93
2022/11/17 04:29:32;;;;;;;2.78;1.98;;;;;;;8.65;100.00;98329.63;5007371;28;20045;-93
2022/11/17 04:32:15;;;;;;;3.00;2.05;;;;;;;8.71;100.00;98331.03;5012197;28;20022;-94
2022/11/17 04:34:56;;;;;;;2.75;1.90;;;;;;;8.75;100.00;98341.91;5012609;28;20025;-95
2022/11/17 04:37:40;;;;;;;3.88;2.83;;;;;;;8.67;100.00;98334.63;5012561;28;20524;-95
2022/11/17 04:40:17;;;;;;;4.03;2.20;;;;;;;8.78;100.00;98360.78;5012369;28;20076;-95
2022/11/17 04:42:44;;;;;;;4.93;2.25;;;;;;;8.78;100.00;98360.78;4992255;28;20034;-94
2022/11/17 04:45:10;;;;;;;4.18;2.03;;;;;;;8.61;100.00;98321.41;5002355;28;20105;-93
2022/11/17 04:47:43;;;;;;;5.37;2.70;;;;;;;8.58;100.00;98308.66;4990791;28;20030;-94
2022/11/17 04:50:10;;;;;;;4.10;1.83;;;;;;;8.64;100.00;98312.00;5005189;28;20142;-94
2022/11/17 04:52:46;;;;;;;7.73;2.23;;;;;;;8.69;100.00;98308.41;5011468;28;20022;-94
2022/11/17 04:55:23;;;;;;;;;;;;;;;;;;;;;
2022/11/17 04:57:48;;;;;;;3.90;1.60;;;;;;;8.67;100.00;98300.72;5011193;28;20032;-94
2022/11/17 05:00:17;;;;;;;2.97;1.80;;;;;;;8.61;100.00;98289.38;5010910;28;20113;-96
2022/11/17 05:03:08;;;;;;;5.07;1.70;;;;;;;8.74;100.00;98300.28;5011695;28;20026;-95
2022/11/17 05:05:33;;;;;;;4.43;2.03;;;;;;;8.70;100.00;98299.31;5011523;28;20339;-96
2022/11/17 05:08:01;;;;;;;3.53;1.42;;;;;;;8.60;100.00;98284.34;5012275;28;20022;-94
2022/11/17 05:13:25;;;;;;;5.13;1.70;;;;;;;8.69;100.00;98306.53;5012636;28;20370;-94
2022/11/17 05:18:42;;;;;;;4.70;1.40;;;;;;;8.74;100.00;98321.66;5008539;28;20504;-96
2022/11/17 05:21:30;;;;;;;5.88;1.80;;;;;;;8.58;100.00;98287.31;4994856;28;20402;-95
2022/11/17 05:24:20;;;;;;;9.65;1.63;;;;;;;8.76;100.00;98324.81;5021005;28;20026;-94
2022/11/17 05:26:47;;;;;;;7.05;1.50;;;;;;;8.74;100.00;98327.00;5024903;28;20091;-94
2022/11/17 05:29:16;;;;;;;8.63;1.48;;;;;;;8.77;100.00;98311.13;5022116;28;20073;-94
2022/11/17 05:31:42;;;;;;;7.93;1.95;;;;;;;8.86;100.00;98326.38;5022078;28;20026;-96
2022/11/17 05:34:11;;;;;;;8.83;1.50;;;;;;;8.86;100.00;98335.22;5019692;28;20034;-93
2022/11/17 05:37:20;;;;;;;9.05;1.25;;;;;;;8.83;100.00;98343.06;5016745;28;20026;-96
2022/11/17 05:40:00;;;;;;;;;;;;;;;;;;;;;
2022/11/17 05:42:38;;;;;;;;;;;;;;;;;;;;;
2022/11/17 05:45:37;;;;;;;;;;;;;;;;;;;;;
2022/11/17 05:48:06;;;;;;;9.25;1.23;;;;;;;8.86;100.00;98350.44;5031411;28;20057;-94
2022/11/17 05:50:31;;;;;;;9.27;1.40;;;;;;;8.76;100.00;98341.59;5036828;28;20026;-93
2022/11/17 05:52:58;;;;;;;6.80;1.73;;;;;;;8.77;100.00;98350.38;5038070;28;20299;-93
2022/11/17 05:55:43;;;;;;;8.80;1.45;;;;;;;8.73;100.00;98330.75;5037260;28;20026;-92
2022/11/17 05:58:33;;;;;;;;;;;;;;;;;;;;;
2022/11/17 06:01:14;;;;;;;10.20;1.30;;;;;;;8.79;100.00;98354.34;5036952;28;20312;-93
2022/11/17 06:03:49;;;;;;;8.45;1.20;;;;;;;8.82;100.00;98363.63;5036221;28;20016;-92
2022/11/17 06:06:17;;;;;;;12.13;1.30;;;;;;;8.79;100.00;98353.53;5037103;28;20030;-92
2022/11/17 06:08:43;;;;;;;8.63;1.30;;;;;;;8.81;100.00;98362.03;5036235;28;20034;-91
2022/11/17 06:11:11;;;;;;;17.10;1.53;;;;;;;8.90;100.00;98373.56;5034583;28;20408;-90
2022/11/17 06:13:37;;;;;;;13.15;1.13;;;;;;;8.86;100.00;98375.25;5017055;28;20090;-91
2022/11/17 06:16:06;;;;;;;17.23;2.00;;;;;;;8.90;100.00;98372.75;5015438;28;20104;-91
2022/11/17 06:18:37;;;;;;;9.87;1.40;;;;;;;8.88;100.00;98380.28;5013965;28;20026;-92
2022/11/17 06:21:03;;;;;;;11.50;1.40;;;;;;;8.86;100.00;98382.47;5009968;28;20300;-92
2022/11/17 06:23:32;;;;;;;9.15;1.58;;;;;;;8.85;100.00;98376.34;4994909;28;20133;-92
2022/11/17 06:26:11;;;;;;;14.60;1.60;;;;;;;8.80;100.00;98384.50;4998266;28;20109;-91
2022/11/17 06:28:40;;;;;;;8.75;1.13;;;;;;;8.80;100.00;98384.50;5015206;28;20040;-91
2022/11/17 06:31:06;;;;;;;11.10;1.55;;;;;;;8.70;100.00;98368.72;5013305;28;20614;-90
2022/11/17 06:33:33;;;;;;;12.18;1.88;;;;;;;8.81;100.00;98390.63;5014644;28;20057;-92
2022/11/17 06:36:00;;;;;;;8.93;1.35;;;;;;;8.75;100.00;98393.41;5012237;28;20118;-91
2022/11/17 06:38:28;;;;;;;8.00;1.00;;;;;;;8.72;100.00;98402.03;5014981;28;20026;-91
2022/11/17 06:40:54;;;;;;;8.07;0.80;;;;;;;8.59;100.00;98381.53;5014293;28;20277;-90
2022/11/17 06:43:19;;;;;;;7.68;1.02;;;;;;;8.63;100.00;98393.19;5015536;28;20030;-92
2022/11/17 06:45:52;;;;;;;10.27;1.10;;;;;;;8.59;100.00;98400.22;5015604;28;20018;-92
2022/11/17 06:48:25;;;;;;;8.00;1.00;;;;;;;8.53;100.00;98391.56;5015074;28;20052;-93
2022/11/17 06:50:52;;;;;;;7.60;1.10;;;;;;;8.53;100.00;98406.78;5014758;28;20440;-94
2022/11/17 06:53:27;;;;;;;13.00;1.10;;;;;;;8.49;100.00;98409.25;5015226;28;20049;-91
2022/11/17 06:56:23;;;;;;;;;;;;;;;;;;;;;
2022/11/17 06:59:03;;;;;;;12.00;1.48;;;;;;;8.43;100.00;98403.22;5026315;28;20070;-96
2022/11/17 07:02:06;;;;;;;6.88;1.10;;;;;;;8.38;100.00;98405.22;5097584;22;20046;-96
2022/11/17 07:05:52;;;;;;;;;;;;;;;;;;;;;
2022/11/17 07:11:09;;;;;;;7.95;1.00;;;;;;;8.39;100.00;98420.16;5022604;23;20855;-94
2022/11/17 07:16:56;;;;;;;;;;;;;;;;;;;;;
2022/11/17 07:20:10;;;;;;;;;;;;;;;;;;;;;
2022/11/17 07:22:53;;;;;;;5.53;0.90;;;;;;;8.26;100.00;98433.22;5056227;28;20052;-94
2022/11/17 07:25:54;;;;;;;;;;;;;;;;;;;;;
2022/11/17 07:35:06;;;;;;;;;;;;;;;;;;;;;
2022/11/17 07:56:28;;;;;;;;;;;;;;;;;;;;;
2022/11/17 07:59:04;;;;;;;4.73;0.60;;;;;;;8.31;100.00;98486.47;5021849;28;20113;-94
2022/11/17 08:01:48;;;;;;;;;;;;;;;;;;;;;
2022/11/17 08:04:24;;;;;;;4.75;0.70;;;;;;;8.25;100.00;98482.34;5021329;28;20101;-92
2022/11/17 08:10:25;;;;;;;;;;;;;;;;;;;;;
2022/11/17 08:13:44;;;;;;;4.40;0.85;;;;;;;8.21;100.00;98475.25;4908204;29;20037;-94
2022/11/17 08:16:32;;;;;;;;;;;;;;;;;;;;;
2022/11/17 08:19:19;;;;;;;6.03;0.60;;;;;;;8.29;100.00;98501.22;5000077;28;20133;-93
2022/11/17 08:22:10;;;;;;;;;;;;;;;;;;;;;
2022/11/17 08:24:48;;;;;;;;;;;;;;;;;;;;;
2022/11/17 08:27:38;;;;;;;5.83;0.70;;;;;;;8.18;100.00;98503.31;5015105;28;20041;-94
2022/11/17 08:30:39;;;;;;;;;;;;;;;;;;;;;
2022/11/17 08:33:55;;;;;;;;;;;;;;;;;;;;;
2022/11/17 09:10:10;;;;;;;;;;;;;;;;;;;;;
2022/11/17 09:49:01;;;;;;;7.50;1.25;;;;;;;8.64;100.00;98578.97;5018547;28;20033;-96
2022/11/17 09:51:51;;;;;;;3.63;1.00;;;;;;;8.78;100.00;98590.41;5015714;28;20049;-96
2022/11/17 09:54:41;;;;;;;;;;;;;;;;;;;;;
2022/11/17 09:57:37;;;;;;;;;;;;;;;;;;;;;
2022/11/17 10:00:51;;;;;;;6.03;0.90;;;;;;;8.85;100.00;98594.56;5035967;28;20114;-96
2022/11/17 10:03:50;;;;;;;3.83;0.80;;;;;;;8.98;100.00;98601.75;4927317;28;20036;-94
2022/11/17 10:09:13;;;;;;;2.67;0.60;;;;;;;9.05;100.00;98630.72;5019544;28;20049;-95
2022/11/17 10:11:49;;;;;;;5.67;0.97;;;;;;;9.13;100.00;98632.66;5004048;28;20034;-96
2022/11/17 10:14:19;;;;;;;4.70;0.90;;;;;;;9.07;100.00;98618.63;5013865;28;20927;-96
2022/11/17 10:16:58;;;;;;;4.68;0.82;;;;;;;9.24;100.00;98631.34;5014085;28;20068;-94
2022/11/17 10:19:25;;;;;;;5.25;0.70;;;;;;;9.37;100.00;98631.59;5015052;28;20061;-95
2022/11/17 10:22:09;;;;;;;3.55;0.88;;;;;;;9.45;100.00;98638.91;5012598;28;20033;-95
2022/11/17 10:24:43;;;;;;;6.22;0.80;;;;;;;9.52;100.00;98638.47;5013729;28;20049;-95
2022/11/17 10:27:57;;;;;;;3.47;0.80;;;;;;;9.53;100.00;98634.69;4996898;28;20056;-96
2022/11/17 10:31:01;;;;;;;6.22;1.73;;;;;;;9.60;100.00;98650.31;4996579;28;20096;-96
2022/11/17 10:34:05;;;;;;;;;;;;;;;;;;;;;
2022/11/17 10:36:50;;;;;;;2.40;0.70;;;;;;;9.80;100.00;98651.69;4979849;28;20295;-95
2022/11/17 10:39:38;;;;;;;4.78;0.80;;;;;;;9.78;100.00;98649.34;5013887;28;20061;-96
2022/11/17 10:42:21;;;;;;;1.48;0.70;;;;;;;9.95;100.00;98661.22;4984257;28;20038;-95
2022/11/17 10:45:02;;;;;;;;;;;;;;;;;;;;;
2022/11/17 10:47:48;;;;;;;;;;;;;;;;;;;;;
2022/11/17 10:50:20;;;;;;;4.45;0.75;;;;;;;10.13;100.00;98675.50;5014217;28;20034;-94
2022/11/17 10:53:16;;;;;;;4.53;0.70;;;;;;;10.00;100.00;98664.56;5016117;28;20036;-94
2022/11/17 10:55:43;;;;;;;4.20;0.57;;;;;;;9.82;100.00;98658.34;5014198;28;20303;-93
2022/11/17 10:58:51;;;;;;;4.80;0.90;;;;;;;9.82;100.00;98669.03;5012702;28;20033;-91
2022/11/17 11:01:27;;;;;;;3.72;1.00;;;;;;;9.71;100.00;98662.34;4997927;28;20413;-93
2022/11/17 11:04:42;;;;;;;;;;;;;;;;;;;;;
2022/11/17 11:15:07;;;;;;;;;;;;;;;;;;;;;
2022/11/17 11:17:42;;;;;;;4.13;0.77;;;;;;;9.81;100.00;98690.72;5013460;28;20360;-96
2022/11/17 11:20:34;;;;;;;4.63;0.82;;;;;;;9.74;100.00;98685.81;4981097;28;20046;-95
2022/11/17 11:23:32;;;;;;;3.70;0.60;;;;;;;9.77;100.00;98698.56;4999845;28;20038;-95
2022/11/17 11:26:29;;;;;;;2.65;0.90;;;;;;;9.75;100.00;98698.06;4944843;29;20078;-96
2022/11/17 11:29:44;;;;;;;4.13;0.73;;;;;;;9.73;100.00;98694.91;4944012;28;20023;-96
2022/11/17 11:32:53;;;;;;;3.78;0.88;;;;;;;9.75;100.00;98694.63;4966377;28;20117;-96
2022/11/17 11:36:01;;;;;;;2.80;1.02;;;;;;;9.70;100.00;98708.88;4964742;28;20038;-92
2022/11/17 11:38:46;;;;;;;5.93;0.80;;;;;;;9.62;100.00;98701.59;4983633;28;20031;-94
2022/11/17 11:41:36;;;;;;;3.07;1.10;;;;;;;9.59;100.00;98718.25;4998197;28;21020;-94
2022/11/17 11:44:23;;;;;;;4.95;1.00;;;;;;;9.49;100.00;98719.28;4992130;28;20030;-96
2022/11/17 11:49:49;;;;;;;1.65;0.70;;;;;;;9.45;100.00;98720.97;5117513;23;20840;-96
2022/11/17 11:52:30;;;;;;;;;;;;;;;;;;;;;
2022/11/17 11:55:34;;;;;;;;;;;;;;;;;;;;;
2022/11/17 12:09:09;;;;;;;4.15;0.60;;;;;;;9.81;100.00;98731.66;5030840;28;20033;-96
2022/11/17 12:12:12;;;;;;;2.10;0.50;;;;;;;9.66;100.00;98715.97;5037607;28;20082;-96
2022/11/17 12:15:31;;;;;;;3.05;0.68;;;;;;;9.73;100.00;98718.22;5016570;28;20091;-96
2022/11/17 12:18:17;;;;;;;3.53;0.60;;;;;;;9.90;100.00;98739.72;4984361;28;20077;-94
2022/11/17 12:21:18;;;;;;;4.00;0.60;;;;;;;9.90;100.00;98728.22;5010680;28;20297;-95
2022/11/17 12:24:24;;;;;;;2.08;0.70;;;;;;;10.05;100.00;98746.56;4992891;28;20105;-92
2022/11/17 12:26:52;;;;;;;4.28;0.60;;;;;;;9.98;100.00;98740.88;4967498;28;20088;-93
2022/11/17 12:29:21;;;;;;;6.10;0.65;;;;;;;10.03;100.00;98742.63;4974427;28;20022;-93
2022/11/17 12:32:02;;;;;;;5.57;0.75;;;;;;;9.98;100.00;98751.59;4992036;28;20076;-92
2022/11/17 12:34:31;;;;;;;2.92;0.80;;;;;;;10.09;100.00;98749.44;4976509;28;20033;-93
2022/11/17 12:37:17;;;;;;;3.17;0.60;;;;;;;10.07;100.00;98760.44;5009622;28;20026;-93
2022/11/17 12:40:04;;;;;;;2.00;0.50;;;;;;;10.08;100.00;98751.31;4996440;28;20026;-93
2022/11/17 12:42:32;;;;;;;3.23;0.70;;;;;;;10.12;100.00;98744.28;5008797;28;20416;-93
2022/11/17 12:44:59;;;;;;;7.93;0.98;;;;;;;10.17;100.00;98758.63;4995300;28;20029;-94
2022/11/17 12:47:36;;;;;;;3.55;0.70;;;;;;;10.15;100.00;98758.91;4996109;28;20037;-94
2022/11/17 12:50:20;;;;;;;5.47;0.75;;;;;;;10.04;100.00;98768.31;5007029;28;20045;-94
2022/11/17 12:53:04;;;;;;;4.78;0.75;;;;;;;9.99;100.00;98769.22;5011380;28;20042;-93
2022/11/17 12:56:06;;;;;;;4.07;0.77;;;;;;;9.93;100.00;98767.75;5010395;28;20037;-94
2022/11/17 12:58:49;;;;;;;6.63;0.77;;;;;;;9.95;100.00;98763.66;5011413;28;20041;-94
2022/11/17 13:01:19;;;;;;;3.57;0.70;;;;;;;10.00;100.00;98758.19;5011368;28;20049;-94
2022/11/17 13:04:01;;;;;;;3.17;0.53;;;;;;;10.10;100.00;98767.09;5012484;28;20281;-93
2022/11/17 13:25:02;;;;;;;;;;;;;;;;;;;;;
2022/11/17 13:27:32;;;;;;;2.67;0.67;;;;;;;10.48;100.00;98771.28;5034508;28;20407;-93
2022/11/17 13:30:22;;;;;;;2.38;0.88;;;;;;;10.63;100.00;98764.72;5015293;28;20480;-94
2022/11/17 13:32:48;;;;;;;2.75;0.60;;;;;;;10.68;100.00;98789.50;5017549;28;20021;-94
2022/11/17 13:35:28;;;;;;;3.08;0.90;;;;;;;10.69;100.00;98788.41;5041367;28;20030;-95
2022/11/17 13:38:17;;;;;;;2.65;0.60;;;;;;;10.75;100.00;98797.06;5049142;28;20036;-95
2022/11/17 13:40:45;;;;;;;4.85;1.00;;;;;;;10.80;100.00;98802.31;5021664;28;20029;-94
2022/11/17 13:46:31;;;;;;;2.27;0.60;;;;;;;10.76;100.00;98779.91;5024951;28;20775;-94
2022/11/17 13:49:09;;;;;;;;;;;;;;;;;;;;;
2022/11/17 13:54:29;;;;;;;2.00;0.50;;;;;;;11.02;100.00;98788.03;5020715;28;20033;-94
2022/11/17 13:57:17;;;;;;;;;;;;;;;;;;;;;
2022/11/17 14:00:24;;;;;;;3.60;0.50;;;;;;;11.03;100.00;98794.22;5036253;28;20112;-94
2022/11/17 14:03:02;;;;;;;3.53;0.80;;;;;;;10.94;100.00;98785.34;5035062;28;20026;-95
2022/11/17 14:06:00;;;;;;;2.47;0.73;;;;;;;10.96;100.00;98813.38;5017912;28;20287;-95
2022/11/17 14:08:59;;;;;;;;;;;;;;;;;;;;;
2022/11/17 14:11:28;;;;;;;1.92;0.85;;;;;;;10.85;100.00;98806.72;5031613;28;20048;-95
2022/11/17 14:13:57;;;;;;;2.78;0.70;;;;;;;10.96;100.00;98821.44;5035586;28;20029;-93
2022/11/17 14:16:36;;;;;;;2.55;0.70;;;;;;;10.98;100.00;98819.22;5013023;28;20113;-93
2022/11/17 14:19:14;;;;;;;5.32;1.15;;;;;;;10.99;100.00;98823.50;5016305;28;20025;-94
2022/11/17 14:21:59;;;;;;;4.95;0.85;;;;;;;10.96;100.00;98821.44;5015490;28;20022;-94
2022/11/17 14:24:26;;;;;;;2.80;0.57;;;;;;;10.88;100.00;98835.59;5034986;28;20034;-94
2022/11/17 14:26:54;;;;;;;1.43;0.60;;;;;;;10.80;100.00;98828.28;5035556;28;20272;-94
2022/11/17 14:29:20;;;;;;;15.93;1.70;;;;;;;10.77;100.00;98837.75;5036858;28;20025;-96
2022/11/17 14:31:48;;;;;;;2.05;0.60;;;;;;;10.68;100.00;98837.69;5035854;28;20085;-95
2022/11/17 14:34:25;;;;;;;2.05;0.50;;;;;;;10.59;100.00;98820.81;5035059;28;20021;-96
2022/11/17 14:37:05;;;;;;;4.35;0.60;;;;;;;10.63;100.00;98831.69;5035559;28;20040;-95
2022/11/17 14:39:30;;;;;;;2.78;0.65;;;;;;;10.60;100.00;98838.44;5031799;28;20080;-96
2022/11/17 14:41:57;;;;;;;3.43;0.70;;;;;;;10.61;100.00;98829.31;5106944;23;20050;-96
2022/11/17 14:44:30;;;;;;;1.67;0.45;;;;;;;10.50;100.00;98830.66;5019364;28;20026;-96
2022/11/17 14:47:00;;;;;;;3.65;0.60;;;;;;;10.57;100.00;98841.75;5023813;28;20126;-96
2022/11/17 14:50:01;;;;;;;8.60;2.10;;;;;;;10.37;100.00;98833.09;5020023;28;20033;-95
2022/11/17 14:52:46;;;;;;;4.80;0.70;;;;;;;10.47;100.00;98855.38;5029989;28;20095;-96
2022/11/17 14:55:24;;;;;;;;;;;;;;;;;;;;;
2022/11/17 14:58:10;;;;;;;;;;;;;;;;;;;;;
2022/11/17 15:54:57;;;;;;;1.90;0.68;;;;;;;9.50;100.00;98918.69;5226691;22;20060;-96
2022/11/17 16:26:20;;;;;;;3.10;1.05;;;;;;;9.05;100.00;98922.69;5715902;22;20049;-95
2022/11/17 16:36:42;;;;;;;2.47;0.80;;;;;;;9.07;100.00;98959.81;5158675;22;20292;-96
2022/11/17 16:39:13;;;;;;;2.60;0.90;;;;;;;8.89;100.00;98938.22;5033655;28;20018;-96
2022/11/17 16:41:51;;;;;;;;;;;;;;;;;;;;;
2022/11/17 17:10:01;;;;;;;3.25;0.80;;;;;;;8.48;100.00;98984.22;5024747;28;20046;-96
2022/11/17 17:12:29;;;;;;;4.53;0.90;;;;;;;8.49;100.00;98978.59;5034603;28;20090;-96
2022/11/17 17:14:58;;;;;;;2.45;0.98;;;;;;;8.29;100.00;98955.63;5035127;28;20045;-96
2022/11/17 17:17:24;;;;;;;2.22;0.93;;;;;;;8.29;100.00;98960.19;5036184;28;20026;-95
2022/11/17 17:19:50;;;;;;;2.67;1.00;;;;;;;8.30;100.00;98965.22;5037733;28;20034;-96
2022/11/17 17:22:47;;;;;;;3.85;0.90;;;;;;;8.27;100.00;98973.78;5021104;28;20030;-96
2022/11/17 17:25:16;;;;;;;2.63;1.10;;;;;;;8.28;100.00;98983.38;5296649;22;20044;-96
2022/11/17 17:27:42;;;;;;;5.17;1.50;;;;;;;8.26;100.00;98982.88;5034567;28;20081;-96
2022/11/17 17:30:08;;;;;;;5.70;1.60;;;;;;;8.10;100.00;98970.81;5036684;28;20016;-96
2022/11/17 17:32:34;;;;;;;4.90;1.10;;;;;;;8.19;100.00;98979.78;5001634;28;20044;-96
2022/11/17 17:34:59;;;;;;;5.20;1.17;;;;;;;8.11;100.00;98993.75;5130623;23;20009;-95
2022/11/17 17:37:24;;;;;;;6.38;0.98;;;;;;;8.01;100.00;98976.81;5052288;28;20497;-95
2022/11/17 17:39:53;;;;;;;2.60;1.10;;;;;;;8.11;100.00;99007.09;5056222;28;20030;-96
2022/11/17 17:50:14;;;;;;;1.55;0.80;;;;;;;8.03;100.00;99011.19;5494050;23;20050;-95
2022/11/17 17:52:40;;;;;;;4.68;1.17;;;;;;;7.87;100.00;99000.69;5056367;28;20017;-95
2022/11/17 17:55:18;;;;;;;;;;;;;;;;;;;;;
2022/11/17 18:08:51;;;;;;;;;;;;;;;;;;;;;
2022/11/17 18:11:24;;;;;;;1.58;1.10;;;;;;;7.77;100.00;99043.47;5041078;28;20124;-94
2022/11/17 18:13:57;;;;;;;2.30;0.90;;;;;;;7.65;100.00;99038.53;5041525;28;20057;-92
2022/11/17 18:16:24;;;;;;;5.47;3.00;;;;;;;7.64;100.00;99044.13;5021096;28;20030;-93
2022/11/17 18:19:01;;;;;;;4.03;2.55;;;;;;;7.71;100.00;99045.38;5087098;22;20586;-96
2022/11/17 18:21:28;;;;;;;3.63;1.92;;;;;;;7.58;100.00;99030.84;5031188;28;20030;-94
2022/11/17 18:23:54;;;;;;;5.78;4.22;;;;;;;7.61;100.00;99036.69;4998515;28;20034;-96